Latest Coastal Weather Observations for Flinders Island Airport

IDV60701

Issued at 3:25 am EST Wednesday 3 September 2014 (issued every 10 minutes, with the page automatically refreshed every 10 minutes)

About coastal observations | Map of coastal stations | Coastal observations for VIC | Marine services | Other Formats
Station Details ID: 099005 Name: FLINDERS ISLAND AIRPORT Lat: -40.09 Lon: 148.00 Height: 9.0 m
Data from the previous 72 hours. | See also: Recent months at Flinders Island Airport
Date/Time
EST
Temp

°C
Wind Pressure Rain
since 9am
mm
Weather Cloud Vis
km
Sea
Height
m
Swell
Dir
 
Speed
knots
Gust
knots
hPa Trend Height
m
Period
s
Dir
03/03:00am 3.7 SE 5 7 1019.3 - 0.0 - - 10 - - - -
03/02:30am 5.2 E 4 5 1019.5 - 0.0 - - 10 - - - -
03/02:00am 6.6 ESE 4 5 1019.8 - 0.0 - - 10 - - - -
03/01:30am 6.8 ESE 5 6 1020.0 - 0.0 - Partly cloudy 10 - - - -
03/01:00am 6.4 ESE 5 7 1020.0 - 0.0 - Cloudy 10 - - - -
03/12:30am 5.5 E 5 7 1019.9 - 0.0 - Partly cloudy 10 - - - -
03/12:00am 6.1 ESE 4 5 1019.8 - 0.0 - - - - - - -
 
Date/Time
EST
Temp

°C
Wind Pressure Rain
since 9am
mm
Weather Cloud Vis
km
Sea
Height
m
Swell
Dir
 
Speed
knots
Gust
knots
hPa Trend Height
m
Period
s
Dir
02/11:30pm 3.7 E 5 7 1019.8 - 0.0 - - 10 - - - -
02/11:00pm 2.7 ENE 6 7 1019.9 - 0.0 - - 10 - - - -
02/10:30pm 3.0 ENE 5 6 1019.8 - 0.0 - - 10 - - - -
02/10:00pm 4.0 ENE 6 6 1019.8 - 0.0 - - 10 - - - -
02/09:30pm 5.7 ENE 6 7 1019.8 - 0.0 - - 10 - - - -
02/09:00pm 7.2 E 5 7 1019.6 - 0.0 - - 10 - - - -
02/08:30pm 10.7 S 7 10 1019.3 - 0.0 - - 10 - - - -
02/08:00pm 11.4 SSW 13 19 1019.1 - 0.0 - - 10 - - - -
02/07:30pm 11.4 SW 14 17 1019.1 - 0.0 - - 10 - - - -
02/07:00pm 10.8 WSW 12 15 1018.9 - 0.0 - - 10 - - - -
02/06:30pm 11.0 WSW 13 16 1018.7 - 0.0 - - 10 - - - -
02/06:00pm 11.0 WSW 14 17 1018.5 - 0.0 - Mostly clear 10 - - - -
02/05:30pm 11.5 SW 8 9 1018.2 - 0.0 - - 10 - - - -
02/05:00pm 12.0 SSW 9 11 1018.1 - 0.0 - - 10 - - - -
02/04:30pm 12.5 SSW 11 14 1017.8 - 0.0 - - 10 - - - -
02/04:00pm 12.7 S 14 17 1017.3 - 0.0 - - 10 - - - -
02/03:30pm 13.0 SSW 16 20 1017.0 - 0.0 - Partly cloudy 10 - - - -
02/03:00pm 13.3 S 11 16 1016.7 - 0.0 - - 10 - - - -
02/02:30pm 14.0 S 12 17 1016.3 - 0.0 - - 10 - - - -
02/02:00pm 13.5 S 15 20 1016.2 - 0.0 - - 10 - - - -
02/01:30pm 13.6 S 15 22 1016.1 - 0.0 - - 10 - - - -
02/01:24pm 13.5 S 15 26 1016.1 - 0.0 - - 10 - - - -
02/01:00pm 13.9 S 15 22 1015.9 - 0.0 - - 10 - - - -
02/12:30pm 13.6 S 15 24 1015.8 - 0.0 - - 10 - - - -
02/12:00pm 13.1 S 15 23 1015.8 - 0.0 - Mostly clear 10 - - - -
02/11:42am 12.4 S 15 25 1015.9 - 0.0 - Partly cloudy 10 - - - -
02/11:30am 12.0 S 17 22 1015.9 - 0.0 - Partly cloudy 10 - - - -
02/11:00am 12.0 S 16 22 1016.0 - 0.0 - Partly cloudy 10 - - - -
02/10:30am 11.7 S 14 22 1015.8 - 0.0 - Partly cloudy 10 - - - -
02/10:00am 11.3 S 16 22 1015.4 - 0.0 - - 10 - - - -
02/09:30am 10.8 S 17 27 1015.1 - 0.0 - Partly cloudy 10 - - - -
02/09:00am 10.7 S 14 22 1014.9 - 0.8 - Partly cloudy 10 - - - -
02/08:30am 10.6 S 14 19 1014.7 - 0.8 - Partly cloudy 10 - - - -
02/08:00am 10.6 S 15 20 1014.1 - 0.8 - Partly cloudy 10 - - - -
02/07:30am 10.5 S 15 22 1013.8 - 0.8 - Partly cloudy 10 - - - -
02/07:18am 10.4 S 15 25 1013.5 - 0.8 - Partly cloudy 10 - - - -
02/07:00am 10.4 S 13 21 1013.0 - 0.8 - Partly cloudy 10 - - - -
02/06:30am 10.3 S 13 20 1012.5 - 0.8 - Partly cloudy 10 - - - -
02/06:00am 10.4 S 12 22 1011.7 - 0.8 - Cloudy 10 - - - -
02/05:30am 10.2 SSE 9 15 1011.5 - 0.8 - Partly cloudy 10 - - - -
02/05:00am 10.3 SE 9 16 1010.9 - 0.8 - Partly cloudy 10 - - - -
02/04:30am 9.8 SE 7 13 1010.7 - 0.8 - Partly cloudy 10 - - - -
02/04:00am 10.0 SE 7 9 1010.4 - 0.6 - Partly cloudy 10 - - - -
02/03:30am 10.2 SSE 8 15 1010.3 - 0.4 - Partly cloudy 10 - - - -
02/03:00am 9.8 SE 7 12 1009.9 - 0.4 Recent precip. Cloudy 10 - - - -
02/02:30am 10.5 SE 6 10 1009.6 - 0.2 - Partly cloudy 10 - - - -
02/02:00am 10.5 SE 8 15 1009.3 - 0.2 - Partly cloudy 10 - - - -
02/01:30am 10.4 SSE 7 12 1009.1 - 0.2 - Partly cloudy 10 - - - -
02/01:00am 10.3 SE 7 11 1008.9 - 0.2 - Cloudy 10 - - - -
02/12:31am 10.3 ESE 9 16 1008.7 - 0.2 - Cloudy 10 - - - -
02/12:30am 10.3 ESE 9 16 1008.7 - 0.2 - Cloudy 10 - - - -
02/12:20am 10.4 ESE 8 15 1008.7 - 0.2 - Partly cloudy 5 - - - -
02/12:15am 10.7 ESE 9 14 1008.6 - 0.0 - Partly cloudy 5 - - - -
02/12:00am 11.2 E 11 16 1008.4 - 0.0 - Cloudy 10 - - - -
 
Date/Time
EST
Temp

°C
Wind Pressure Rain
since 9am
mm
Weather Cloud Vis
km
Sea
Height
m
Swell
Dir
 
Speed
knots
Gust
knots
hPa Trend Height
m
Period
s
Dir
01/11:30pm 12.5 SW 9 11 1007.9 - 0.0 - Cloudy 10 - - - -
01/11:17pm 12.4 SW 9 12 1007.9 - 0.0 - Partly cloudy 10 - - - -
01/11:00pm 12.2 SW 9 12 1007.8 - 0.0 - Partly cloudy 10 - - - -
01/10:30pm 12.0 SW 10 14 1007.6 - 0.0 - - 10 - - - -
01/10:00pm 12.1 WSW 13 16 1007.5 - 0.0 - - 10 - - - -
01/09:30pm 12.2 W 14 16 1007.2 - 0.0 - - 10 - - - -
01/09:00pm 12.3 W 14 16 1007.2 - 0.0 - Cloudy 10 - - - -
01/08:42pm 12.4 WSW 13 17 1007.3 - 0.0 - Partly cloudy 10 - - - -
01/08:30pm 12.4 WSW 15 17 1007.2 - 0.0 - Partly cloudy 10 - - - -
01/08:08pm 12.6 W 14 17 1007.2 - 0.0 - Partly cloudy 10 - - - -
01/08:00pm 12.4 W 15 18 1007.0 - 0.0 - Partly cloudy 10 - - - -
01/07:37pm 12.6 NW 11 16 1006.5 - 0.0 - Partly cloudy 10 - - - -
01/07:30pm 12.6 NW 13 17 1006.5 - 0.0 - Partly cloudy 10 - - - -
01/07:00pm 12.6 NW 14 18 1006.2 - 0.0 - Partly cloudy 10 - - - -
01/06:44pm 12.6 NW 13 16 1006.3 - 0.0 - Partly cloudy 10 - - - -
01/06:30pm 12.5 NW 13 18 1006.2 - 0.0 - Partly cloudy 10 - - - -
01/06:00pm 12.6 NW 15 20 1006.2 - 0.0 - Cloudy 10 - - - -
01/05:30pm 12.7 NW 14 20 1006.0 - 0.0 - Partly cloudy 10 - - - -
01/05:00pm 12.8 WNW 13 18 1005.9 - 0.0 - Partly cloudy 10 - - - -
01/04:30pm 12.9 WNW 14 19 1005.7 - 0.0 - Partly cloudy 10 - - - -
01/04:00pm 12.8 NW 17 22 1005.7 - 0.0 - Partly cloudy 10 - - - -
01/03:30pm 13.2 NW 15 20 1006.0 - 0.0 - Cloudy 10 - - - -
01/03:00pm 13.5 NW 13 16 1005.8 - 0.0 - Mostly cloudy 10 - - - -
01/02:30pm 14.0 WNW 12 17 1005.8 - 0.0 - Partly cloudy 10 - - - -
01/02:00pm 14.6 NW 12 17 1005.7 - 0.0 - Cloudy 10 - - - -
01/01:30pm 15.0 NW 16 20 1005.8 - 0.0 - Partly cloudy 10 - - - -
01/01:00pm 15.6 NW 12 15 1005.9 - 0.0 - Partly cloudy 10 - - - -
01/12:30pm 16.5 NW 12 15 1006.1 - 0.0 - Partly cloudy 10 - - - -
01/12:00pm 16.6 NW 17 23 1006.9 - 0.0 - Cloudy 10 - - - -
01/11:32am 17.9 NNW 15 26 1006.6 - 0.0 - Partly cloudy 10 - - - -
01/11:30am 18.0 NNW 14 21 1006.6 - 0.0 - Partly cloudy 10 - - - -
01/11:00am 17.9 N 11 18 1006.5 - 0.0 - Partly cloudy 10 - - - -
01/10:30am 17.7 NNE 11 16 1006.5 - 0.0 - Cloudy 10 - - - -
01/10:00am 17.8 NNW 13 22 1007.4 - 0.0 - Partly cloudy 10 - - - -
01/09:30am 16.4 N 9 13 1007.4 - 0.0 - Partly cloudy 10 - - - -
01/09:00am 16.0 NNE 17 21 1007.4 - 0.0 - Mostly cloudy 10 - - - -
01/08:30am 14.9 NE 12 15 1007.3 - 0.0 - Partly cloudy 10 - - - -
01/08:00am 16.9 N 11 17 1008.3 - 0.0 - Cloudy 10 - - - -
01/07:30am 17.2 N 11 15 1008.4 - 0.0 - Cloudy 10 - - - -
01/07:00am 15.3 N 13 17 1008.2 - 0.0 - Cloudy 10 - - - -
01/06:30am 15.2 NNE 14 19 1008.1 - 0.0 - Partly cloudy 10 - - - -
01/06:00am 15.0 NNE 17 22 1008.1 - 0.0 - Cloudy 10 - - - -
01/05:30am 15.2 NNE 16 22 1008.2 - 0.0 - Cloudy 10 - - - -
01/05:00am 15.1 NNE 17 22 1008.4 - 0.0 - Partly cloudy 10 - - - -
01/04:30am 15.0 NNE 17 20 1008.5 - 0.0 - Partly cloudy 10 - - - -
01/04:00am 14.8 NNE 17 22 1008.8 - 0.0 - Partly cloudy 10 - - - -
01/03:30am 14.7 NNE 17 20 1009.0 - 0.0 - Partly cloudy 10 - - - -
01/03:00am 14.6 NNE 17 21 1009.2 - 0.0 - Mostly cloudy 10 - - - -
01/02:30am 14.3 NNE 17 21 1009.5 - 0.0 - - 10 - - - -
01/02:00am 14.4 NNE 17 24 1010.0 - 0.0 - - 10 - - - -
01/01:30am 14.4 NNE 19 26 1010.5 - 0.0 - - 10 - - - -
01/01:00am 14.3 NNE 18 24 1010.9 - 0.0 - - 10 - - - -
01/12:30am 14.1 NNE 16 21 1011.3 - 0.0 - - 10 - - - -
01/12:00am 14.0 NNE 17 21 1011.7 - 0.0 - Cloudy 10 - - - -
 
Date/Time
EST
Temp

°C
Wind Pressure Rain
since 9am
mm
Weather Cloud Vis
km
Sea
Height
m
Swell
Dir
 
Speed
knots
Gust
knots
hPa Trend Height
m
Period
s
Dir
31/11:30pm 14.2 NNE 16 21 1011.9 - 0.0 - Partly cloudy 10 - - - -
31/11:00pm 14.3 N 17 22 1012.2 - 0.0 - - 10 - - - -
31/10:30pm 13.1 NNE 15 20 1012.6 - 0.0 - - 10 - - - -
31/10:00pm 13.3 NE 15 20 1013.1 - 0.0 - - 10 - - - -
31/09:30pm 13.0 NE 15 18 1013.4 - 0.0 - - 10 - - - -
31/09:00pm 12.7 NE 13 17 1013.7 - 0.0 - Partly cloudy 10 - - - -
31/08:30pm 12.5 NNE 13 15 1014.1 - 0.0 - - 10 - - - -
31/08:00pm 12.3 NNE 12 16 1014.2 - 0.0 - - 10 - - - -
31/07:30pm 12.2 NNE 12 15 1014.3 - 0.0 - - 10 - - - -
31/07:00pm 12.5 NNE 10 15 1014.4 - 0.0 - - 10 - - - -
31/06:30pm 12.8 NNE 11 15 1014.4 - 0.0 - - 10 - - - -
31/06:00pm 12.7 NNE 12 15 1014.5 - 0.0 - Partly cloudy 10 - - - -
31/05:30pm 13.4 NNE 10 13 1014.4 - 0.0 - - 10 - - - -
31/05:00pm 14.6 NNE 9 12 1014.5 - 0.0 - - 10 - - - -
31/04:30pm 15.8 NNE 10 13 1014.5 - 0.0 - - 10 - - - -
31/04:00pm 16.6 NNE 11 14 1014.6 - 0.0 - - 10 - - - -
31/03:30pm 17.1 NNE 10 14 1014.8 - 0.0 - - 10 - - - -
31/03:00pm 17.6 NNE 10 15 1015.2 - 0.0 - - 10 - - - -
31/02:30pm 17.8 NNE 11 14 1015.5 - 0.0 - - 10 - - - -
31/02:00pm 18.4 NNE 11 15 1015.8 - 0.0 - - 10 - - - -
31/01:30pm 18.1 N 11 16 1016.2 - 0.0 - - 10 - - - -
31/01:00pm 17.4 N 13 17 1016.5 - 0.0 - - 10 - - - -
31/12:30pm 17.7 N 11 17 1016.8 - 0.0 - - 10 - - - -
31/12:00pm 17.4 NNE 12 16 1017.2 - 0.0 - - 10 - - - -
31/11:30am 17.4 N 13 20 1017.7 - 0.0 - - 10 - - - -
31/11:00am 17.0 N 10 17 1018.2 - 0.0 - - 10 - - - -
31/10:30am 16.6 N 7 14 1018.7 - 0.0 - Partly cloudy 10 - - - -
31/10:00am 15.8 N 9 14 1019.1 - 0.0 - Partly cloudy 10 - - - -
31/09:30am 14.8 N 8 13 1019.3 - 0.0 - Partly cloudy 10 - - - -
31/09:00am 14.3 N 4 9 1019.4 - 0.0 - Mostly clear 10 - - - -
31/08:40am 13.9 NE 3 11 1019.6 - 0.0 - Partly cloudy 10 - - - -
31/08:30am 13.6 E 3 6 1019.6 - 0.0 - Partly cloudy 10 - - - -
31/08:00am 11.8 ENE 4 6 1019.8 - 0.0 - Partly cloudy - - - - -
31/07:30am 8.0 ENE 4 6 1020.0 - 0.0 - Partly cloudy - - - - -
31/07:00am 5.6 E 3 4 1019.9 - 0.0 - Cloudy 10 - - - -
31/06:44am 5.0 NE 4 5 1019.7 - 0.0 - Partly cloudy 10 - - - -
31/06:33am 4.2 ENE 4 6 1019.6 - 0.0 - Partly cloudy 4 - - - -
31/06:30am 4.2 ENE 4 6 1019.6 - 0.0 - Partly cloudy 2 - - - -
31/06:00am 3.7 NE 4 4 1019.7 - 0.0 - - 5 - - - -
31/05:40am 3.7 ENE 4 5 1019.9 - 0.0 - - 5 - - - -
31/05:30am 3.6 ENE 5 6 1019.8 - 0.0 - - 10 - - - -
31/05:13am 4.7 ENE 5 5 1019.9 - 0.0 - - 10 - - - -
31/05:00am 4.1 ENE 4 5 1019.9 - 0.0 - - 4 - - - -
31/04:55am 4.7 ENE 4 5 1019.8 - 0.0 - - 5 - - - -
31/04:30am 6.7 ENE 4 5 1019.9 - 0.0 - - 10 - - - -
31/04:00am 6.5 E 3 4 1020.1 - 0.0 - - 10 - - - -
31/03:30am 7.6 CALM 0 3 1020.3 - 0.0 - - 10 - - - -

Other Formats:

Comma delimited format used in spreadsheet applications
http://www.bom.gov.au/fwo/IDV60701/IDV60701.94980.axf

JavaScript Object Notation format (JSON) in row-major order
http://www.bom.gov.au/fwo/IDV60701/IDV60701.94980.json